createdAt,value
2023-04-18T00:02:07.393Z,12.36
2023-04-18T00:04:37.880Z,12.34
2023-04-18T00:07:06.607Z,12.32
2023-04-18T00:09:34.971Z,12.29
2023-04-18T00:12:04.973Z,12.28
2023-04-18T00:14:34.705Z,12.26
2023-04-18T00:17:04.606Z,12.24
2023-04-18T00:19:34.280Z,12.20
2023-04-18T00:22:02.938Z,12.18
2023-04-18T00:24:31.591Z,12.15
2023-04-18T00:27:00.019Z,12.15
2023-04-18T00:29:28.359Z,12.13
2023-04-18T00:31:56.686Z,12.10
2023-04-18T00:34:26.469Z,12.09
2023-04-18T00:36:57.403Z,12.06
2023-04-18T00:39:25.707Z,12.03
2023-04-18T00:41:54.120Z,12.00
2023-04-18T00:44:22.474Z,11.98
2023-04-18T00:46:51.227Z,11.94
2023-04-18T00:49:19.607Z,11.91
2023-04-18T00:51:49.780Z,11.84
2023-04-18T00:54:19.404Z,11.81
2023-04-18T00:56:49.861Z,11.78
2023-04-18T00:59:18.203Z,11.74
2023-04-18T01:01:46.669Z,11.70
2023-04-18T01:04:15.377Z,11.66
2023-04-18T01:06:47.352Z,11.62
2023-04-18T01:09:17.279Z,11.58
2023-04-18T01:11:45.622Z,11.56
2023-04-18T01:14:14.127Z,11.53
2023-04-18T01:16:44.064Z,11.50
2023-04-18T01:19:12.971Z,11.45
2023-04-18T01:21:43.934Z,11.43
2023-04-18T01:24:15.731Z,11.39
2023-04-18T01:26:48.412Z,11.36
2023-04-18T01:29:16.940Z,11.31
2023-04-18T01:31:45.698Z,11.29
2023-04-18T01:34:20.509Z,11.26
2023-04-18T01:36:48.835Z,11.20
2023-04-18T01:39:19.423Z,11.18
2023-04-18T01:41:47.733Z,11.14
2023-04-18T01:44:18.914Z,11.11
2023-04-18T01:46:47.229Z,11.08
2023-04-18T01:49:17.175Z,11.03
2023-04-18T01:51:45.530Z,11.00
2023-04-18T01:54:16.654Z,10.94
2023-04-18T01:56:46.478Z,10.91
2023-04-18T01:59:14.739Z,10.87
2023-04-18T02:01:43.476Z,10.84
2023-04-18T02:04:12.331Z,10.79
2023-04-18T02:06:40.812Z,10.78
2023-04-18T02:09:09.122Z,10.77
2023-04-18T02:11:40.074Z,10.76
2023-04-18T02:14:09.765Z,10.73
2023-04-18T02:16:38.892Z,10.73
2023-04-18T02:19:07.229Z,10.70
2023-04-18T02:21:35.532Z,10.68
2023-04-18T02:24:03.868Z,10.67
2023-04-18T02:26:34.385Z,10.66
2023-04-18T02:29:02.716Z,10.64
2023-04-18T02:31:33.027Z,10.63
2023-04-18T02:34:04.056Z,10.62
2023-04-18T02:36:34.992Z,10.59
2023-04-18T02:39:03.540Z,10.57
2023-04-18T02:41:31.829Z,10.54
2023-04-18T02:44:00.672Z,10.52
2023-04-18T02:46:35.563Z,10.50
2023-04-18T02:49:03.886Z,10.48
2023-04-18T02:51:32.150Z,10.44
2023-04-18T02:54:00.471Z,10.44
2023-04-18T02:56:28.784Z,10.39
2023-04-18T02:58:57.039Z,10.36
2023-04-18T03:01:25.350Z,10.33
2023-04-18T03:03:55.025Z,10.31
2023-04-18T03:06:23.334Z,10.27
2023-04-18T03:08:51.734Z,10.23
2023-04-18T03:11:20.031Z,10.21
2023-04-18T03:13:48.324Z,10.17
2023-04-18T03:16:16.900Z,10.14
2023-04-18T03:18:48.274Z,10.11
2023-04-18T03:21:18.096Z,10.08
2023-04-18T03:23:46.355Z,10.03
2023-04-18T03:26:17.890Z,10.01
2023-04-18T03:28:46.300Z,9.97
2023-04-18T03:31:14.643Z,9.94
2023-04-18T03:33:44.258Z,9.90
2023-04-18T03:36:17.364Z,9.88
2023-04-18T03:38:47.007Z,9.82
2023-04-18T03:41:15.324Z,9.78
2023-04-18T03:43:43.604Z,9.74
2023-04-18T03:46:11.904Z,9.72
2023-04-18T03:48:40.456Z,9.68
2023-04-18T03:51:08.829Z,9.66
2023-04-18T03:53:37.187Z,9.64
2023-04-18T03:56:07.274Z,9.63
2023-04-18T03:58:36.456Z,9.60
2023-04-18T04:01:06.607Z,9.59
2023-04-18T04:03:35.060Z,9.56
2023-04-18T04:06:03.488Z,9.51
2023-04-18T04:08:31.808Z,9.53
2023-04-18T04:11:00.113Z,9.50
2023-04-18T04:13:29.836Z,9.49
2023-04-18T04:15:58.786Z,9.45
2023-04-18T04:18:31.123Z,9.45
2023-04-18T04:21:02.194Z,9.41
2023-04-18T04:23:30.620Z,9.38
2023-04-18T04:25:59.298Z,9.35
2023-04-18T04:28:28.967Z,9.33
2023-04-18T04:30:57.538Z,9.30
2023-04-18T04:33:28.806Z,9.27
2023-04-18T04:35:57.863Z,9.25
2023-04-18T04:38:31.523Z,9.22
2023-04-18T04:40:59.936Z,9.22
2023-04-18T04:43:29.699Z,9.20
2023-04-18T04:45:58.024Z,9.20
2023-04-18T04:48:26.972Z,9.15
2023-04-18T04:50:57.345Z,9.14
2023-04-18T04:53:36.292Z,9.12
2023-04-18T04:56:06.091Z,9.11
2023-04-18T04:58:35.782Z,9.09
2023-04-18T05:01:04.106Z,9.09
2023-04-18T05:03:38.071Z,9.07
2023-04-18T05:06:09.451Z,9.05
2023-04-18T05:08:37.733Z,9.04
2023-04-18T05:11:06.147Z,9.04
2023-04-18T05:13:35.895Z,9.04
2023-04-18T05:16:04.564Z,9.05
2023-04-18T05:18:34.934Z,9.05
2023-04-18T05:21:03.372Z,9.06
2023-04-18T05:23:36.948Z,9.05
2023-04-18T05:26:05.558Z,9.04
2023-04-18T05:28:38.237Z,9.02
2023-04-18T05:31:06.755Z,9.04
2023-04-18T05:33:35.085Z,9.05
2023-04-18T05:36:03.481Z,9.04
2023-04-18T05:38:31.821Z,9.09
2023-04-18T05:41:00.457Z,9.10
2023-04-18T05:43:31.630Z,9.14
2023-04-18T05:46:04.298Z,9.18
2023-04-18T05:48:32.623Z,9.21
2023-04-18T05:51:00.986Z,9.25
2023-04-18T05:53:29.233Z,9.29
2023-04-18T05:55:59.003Z,9.33
2023-04-18T05:58:30.659Z,9.40
2023-04-18T06:01:00.752Z,9.45
2023-04-18T06:03:29.270Z,9.50
2023-04-18T06:05:57.816Z,9.58
2023-04-18T06:08:29.041Z,9.63
2023-04-18T06:11:00.417Z,9.70
2023-04-18T06:13:28.760Z,9.76
2023-04-18T06:15:57.132Z,9.80
2023-04-18T06:18:26.791Z,9.85
2023-04-18T06:20:55.435Z,9.90
2023-04-18T06:23:28.894Z,9.91
2023-04-18T06:25:59.099Z,9.99
2023-04-18T06:28:27.975Z,10.01
2023-04-18T06:30:56.263Z,10.08
2023-04-18T06:33:28.670Z,10.12
2023-04-18T06:35:59.662Z,10.16
2023-04-18T06:38:28.113Z,10.19
2023-04-18T06:40:56.468Z,10.25
2023-04-18T06:43:24.827Z,10.31
2023-04-18T06:45:58.176Z,10.36
2023-04-18T06:48:28.029Z,10.41
2023-04-18T06:50:56.332Z,10.46
2023-04-18T06:53:24.737Z,10.53
2023-04-18T06:55:53.106Z,10.58
2023-04-18T06:58:21.419Z,10.63
2023-04-18T07:00:52.020Z,10.67
2023-04-18T07:03:20.681Z,10.72
2023-04-18T07:05:51.412Z,10.77
2023-04-18T07:08:19.734Z,10.82
2023-04-18T07:10:48.082Z,10.88
2023-04-18T07:13:16.487Z,10.93
2023-04-18T07:15:44.846Z,10.99
2023-04-18T07:18:18.041Z,11.06
2023-04-18T07:20:53.190Z,11.12
2023-04-18T07:23:21.456Z,11.18
2023-04-18T07:25:50.552Z,11.23
2023-04-18T07:28:27.123Z,11.30
2023-04-18T07:30:56.988Z,11.35
2023-04-18T07:33:25.705Z,11.42
2023-04-18T07:35:55.827Z,11.47
2023-04-18T07:38:24.336Z,11.53
2023-04-18T07:40:58.693Z,11.61
2023-04-18T07:43:27.539Z,11.68
2023-04-18T07:45:57.152Z,11.74
2023-04-18T07:48:26.218Z,11.81
2023-04-18T07:50:55.904Z,11.88
2023-04-18T07:53:24.329Z,11.96
2023-04-18T07:55:54.391Z,12.02
2023-04-18T07:58:22.907Z,12.13
2023-04-18T08:00:51.213Z,12.21
2023-04-18T08:03:20.022Z,12.28
2023-04-18T08:05:49.012Z,12.37
2023-04-18T08:08:18.882Z,12.47
2023-04-18T08:10:47.233Z,12.55
2023-04-18T08:13:15.573Z,12.66
2023-04-18T08:15:44.057Z,12.72
2023-04-18T08:18:15.290Z,12.82
2023-04-18T08:20:49.185Z,12.91
2023-04-18T08:23:18.858Z,12.96
2023-04-18T08:25:47.382Z,13.07
2023-04-18T08:28:15.826Z,13.16
2023-04-18T08:30:48.875Z,13.24
2023-04-18T08:33:17.346Z,13.38
2023-04-18T08:35:45.990Z,13.50
2023-04-18T08:38:14.775Z,13.55
2023-04-18T08:40:44.991Z,13.69
2023-04-18T08:43:19.183Z,13.77
2023-04-18T08:45:53.870Z,13.93
2023-04-18T08:48:23.074Z,14.01
2023-04-18T08:50:51.418Z,14.13
2023-04-18T08:53:20.110Z,14.23
2023-04-18T08:55:54.835Z,14.31
2023-04-18T08:58:23.742Z,14.38
2023-04-18T09:00:52.861Z,14.44
2023-04-18T09:03:39.794Z,14.48
2023-04-18T09:06:10.136Z,14.57
2023-04-18T09:08:38.459Z,14.61
2023-04-18T09:11:26.034Z,14.67
2023-04-18T09:13:56.377Z,14.74
2023-04-18T09:16:25.268Z,14.78
2023-04-18T09:19:14.605Z,14.85
2023-04-18T09:21:46.286Z,14.89
2023-04-18T09:24:24.931Z,14.94
2023-04-18T09:26:57.221Z,15.03
2023-04-18T09:29:46.776Z,15.08
2023-04-18T09:32:25.160Z,15.19
2023-04-18T09:35:03.535Z,15.27
2023-04-18T09:37:37.400Z,15.31
2023-04-18T09:40:19.108Z,15.34
2023-04-18T09:42:53.142Z,15.41
2023-04-18T09:45:27.979Z,15.48
2023-04-18T09:47:56.926Z,15.53
2023-04-18T09:50:27.436Z,15.56
2023-04-18T09:52:57.117Z,15.54
2023-04-18T09:55:25.562Z,15.58
2023-04-18T09:57:56.356Z,15.59
2023-04-18T10:00:26.982Z,15.60
2023-04-18T10:03:02.947Z,15.59
2023-04-18T10:05:35.499Z,15.62
2023-04-18T10:08:04.858Z,15.65
2023-04-18T10:10:34.280Z,15.63
2023-04-18T10:13:05.440Z,15.69
2023-04-18T10:15:34.313Z,15.69
2023-04-18T10:18:06.201Z,15.79
2023-04-18T10:20:36.059Z,15.84
2023-04-18T10:23:36.331Z,15.93
2023-04-18T10:26:05.859Z,15.99
2023-04-18T10:28:54.606Z,16.05
2023-04-18T10:31:24.213Z,16.06
2023-04-18T10:36:30.198Z,16.06
2023-04-18T10:39:03.241Z,16.07
2023-04-18T10:41:33.315Z,16.07
2023-04-18T10:44:35.933Z,16.05
2023-04-18T10:47:23.108Z,15.99
2023-04-18T10:50:01.082Z,15.95
2023-04-18T10:52:30.486Z,15.94
2023-04-18T10:55:25.925Z,15.90
2023-04-18T10:57:56.509Z,15.84
2023-04-18T11:00:26.813Z,15.84
2023-04-18T11:02:57.934Z,15.79
2023-04-18T11:05:28.957Z,15.79
2023-04-18T11:07:57.546Z,15.77
2023-04-18T11:10:34.759Z,15.71
2023-04-18T11:13:07.202Z,15.71
2023-04-18T11:15:39.899Z,15.70
2023-04-18T11:18:10.131Z,15.70
2023-04-18T11:20:41.015Z,15.70
2023-04-18T11:23:19.655Z,15.66
2023-04-18T11:25:49.537Z,15.68
2023-04-18T11:28:21.792Z,15.68
2023-04-18T11:30:58.534Z,15.69
2023-04-18T11:33:29.851Z,15.67
2023-04-18T11:36:02.095Z,15.69
2023-04-18T11:38:31.764Z,15.66
2023-04-18T11:41:00.369Z,15.67
2023-04-18T11:43:28.683Z,15.66
2023-04-18T11:46:00.318Z,15.66
2023-04-18T11:48:36.432Z,15.58
2023-04-18T11:51:04.916Z,15.60
2023-04-18T11:53:34.669Z,15.58
2023-04-18T11:56:03.733Z,15.56
2023-04-18T11:58:36.421Z,15.54
2023-04-18T12:01:19.714Z,15.51
2023-04-18T12:04:02.496Z,15.47
2023-04-18T12:06:49.176Z,15.46
2023-04-18T12:09:22.261Z,15.45
2023-04-18T12:12:00.887Z,15.41
2023-04-18T12:14:29.841Z,15.38
2023-04-18T12:16:59.532Z,15.34
2023-04-18T12:19:32.715Z,15.35
2023-04-18T12:22:03.190Z,15.34
2023-04-18T12:24:32.340Z,15.34
2023-04-18T12:27:00.820Z,15.32
2023-04-18T12:29:32.001Z,15.34
2023-04-18T12:32:04.705Z,15.34
2023-04-18T12:34:33.009Z,15.37
2023-04-18T12:37:01.434Z,15.37
2023-04-18T12:39:29.716Z,15.39
2023-04-18T12:41:58.579Z,15.37
2023-04-18T12:44:26.928Z,15.32
2023-04-18T12:46:55.335Z,15.37
2023-04-18T12:49:25.004Z,15.34
2023-04-18T12:51:54.170Z,15.32
2023-04-18T12:54:22.433Z,15.34
2023-04-18T12:56:50.749Z,15.34
2023-04-18T12:59:21.544Z,15.30
2023-04-18T13:01:49.961Z,15.29
2023-04-18T13:04:18.455Z,15.28
2023-04-18T13:06:48.381Z,15.31
2023-04-18T13:09:19.932Z,15.29
2023-04-18T13:11:49.630Z,15.28
2023-04-18T13:14:23.872Z,15.25
2023-04-18T13:16:52.521Z,15.27
2023-04-18T13:19:23.498Z,15.28
2023-04-18T13:21:53.654Z,15.28
2023-04-18T13:24:21.986Z,15.25
2023-04-18T13:26:50.318Z,15.25
2023-04-18T13:29:18.658Z,15.28
2023-04-18T13:31:49.875Z,15.29
2023-04-18T13:34:18.185Z,15.29
2023-04-18T13:36:46.564Z,15.27
2023-04-18T13:39:16.935Z,15.27
2023-04-18T13:41:48.347Z,15.28
2023-04-18T13:44:19.301Z,15.28
2023-04-18T13:46:47.655Z,15.29
2023-04-18T13:49:16.171Z,15.30
2023-04-18T13:51:50.557Z,15.31
2023-04-18T13:54:20.716Z,15.33
2023-04-18T13:56:49.107Z,15.34
2023-04-18T13:59:17.373Z,15.38
2023-04-18T14:01:45.756Z,15.42
2023-04-18T14:04:20.051Z,15.44
2023-04-18T14:06:48.958Z,15.43
2023-04-18T14:09:18.026Z,15.42
2023-04-18T14:11:48.021Z,15.44
2023-04-18T14:14:21.923Z,15.41
2023-04-18T14:16:53.591Z,15.45
2023-04-18T14:19:22.025Z,15.46
2023-04-18T14:21:54.690Z,15.43
2023-04-18T14:24:23.103Z,15.42
2023-04-18T14:26:55.509Z,15.45
2023-04-18T14:29:23.844Z,15.46
2023-04-18T14:31:57.960Z,15.48
2023-04-18T14:34:26.370Z,15.49
2023-04-18T14:36:54.757Z,15.52
2023-04-18T14:39:23.059Z,15.51
2023-04-18T14:41:55.939Z,15.53
2023-04-18T14:44:24.255Z,15.53
2023-04-18T14:46:55.381Z,15.52
2023-04-18T14:49:23.775Z,15.52
2023-04-18T14:51:55.278Z,15.53
2023-04-18T14:54:23.619Z,15.52
2023-04-18T14:56:53.342Z,15.53
2023-04-18T14:59:21.753Z,15.55
2023-04-18T15:01:54.640Z,15.56
2023-04-18T15:04:23.234Z,15.58
2023-04-18T15:06:51.790Z,15.56
2023-04-18T15:09:22.812Z,15.57
2023-04-18T15:12:00.199Z,15.58
2023-04-18T15:14:29.143Z,15.55
2023-04-18T15:17:01.215Z,15.56
2023-04-18T15:19:30.758Z,15.55
2023-04-18T15:22:07.596Z,15.56
2023-04-18T15:24:35.969Z,15.52
2023-04-18T15:27:06.141Z,15.50
2023-04-18T15:29:34.512Z,15.51
2023-04-18T15:32:06.428Z,15.37
2023-04-18T15:34:34.770Z,15.40
2023-04-18T15:37:06.755Z,15.39
2023-04-18T15:39:35.043Z,15.38
2023-04-18T15:42:03.374Z,15.31
2023-04-18T15:44:33.119Z,15.29
2023-04-18T15:47:01.921Z,15.26
2023-04-18T15:49:33.329Z,15.27
2023-04-18T15:52:03.660Z,15.21
2023-04-18T15:54:31.935Z,15.20
2023-04-18T15:57:03.538Z,15.19
2023-04-18T15:59:33.200Z,15.16
2023-04-18T16:02:09.789Z,15.11
2023-04-18T16:04:38.218Z,15.10
2023-04-18T16:07:06.640Z,15.12
2023-04-18T16:09:34.989Z,15.12
2023-04-18T16:12:08.109Z,15.11
2023-04-18T16:14:37.839Z,15.09
2023-04-18T16:17:06.080Z,15.08
2023-04-18T16:19:38.200Z,15.09
2023-04-18T16:22:14.658Z,15.06
2023-04-18T16:24:43.028Z,15.04
2023-04-18T16:27:11.341Z,15.02
2023-04-18T16:29:45.111Z,14.99
2023-04-18T16:32:16.233Z,14.98
2023-04-18T16:34:44.581Z,14.96
2023-04-18T16:37:15.051Z,14.95
2023-04-18T16:39:43.520Z,14.94
2023-04-18T16:42:20.387Z,14.91
2023-04-18T16:44:50.089Z,14.90
2023-04-18T16:47:27.579Z,14.91
2023-04-18T16:49:56.638Z,14.92
2023-04-18T16:52:40.242Z,14.90
2023-04-18T16:55:09.469Z,14.91
2023-04-18T16:57:38.021Z,14.91
2023-04-18T17:00:10.270Z,14.91
2023-04-18T17:02:45.343Z,14.93
2023-04-18T17:05:13.976Z,14.91
2023-04-18T17:07:45.223Z,14.91
2023-04-18T17:10:13.885Z,14.92
2023-04-18T17:12:43.932Z,14.93
2023-04-18T17:15:14.004Z,14.93
2023-04-18T17:17:42.561Z,14.91
2023-04-18T17:20:11.795Z,14.93
2023-04-18T17:22:42.576Z,14.92
2023-04-18T17:25:14.188Z,14.94
2023-04-18T17:27:42.921Z,14.95
2023-04-18T17:30:14.192Z,14.95
2023-04-18T17:32:45.827Z,14.96
2023-04-18T17:35:21.113Z,14.96
2023-04-18T17:37:51.121Z,14.95
2023-04-18T17:40:19.543Z,14.93
2023-04-18T17:42:47.930Z,14.93
2023-04-18T17:45:20.484Z,14.93
2023-04-18T17:47:49.922Z,14.94
2023-04-18T17:50:18.633Z,14.95
2023-04-18T17:52:58.665Z,14.93
2023-04-18T17:55:29.814Z,14.92
2023-04-18T17:57:58.636Z,14.91
2023-04-18T18:00:28.739Z,14.91
2023-04-18T18:03:03.495Z,14.90
2023-04-18T18:05:32.063Z,14.88
2023-04-18T18:08:03.462Z,14.90
2023-04-18T18:10:32.497Z,14.90
2023-04-18T18:13:08.776Z,14.89
2023-04-18T18:15:38.525Z,14.88
2023-04-18T18:18:07.382Z,14.86
2023-04-18T18:20:35.741Z,14.84
2023-04-18T18:23:17.999Z,14.80
2023-04-18T18:25:50.274Z,14.78
2023-04-18T18:28:18.798Z,14.76
2023-04-18T18:30:48.564Z,14.73
2023-04-18T18:33:19.678Z,14.74
2023-04-18T18:35:51.254Z,14.73
2023-04-18T18:38:19.702Z,14.72
2023-04-18T18:40:48.017Z,14.70
2023-04-18T18:43:16.445Z,14.70
2023-04-18T18:45:49.330Z,14.65
2023-04-18T18:48:17.654Z,14.67
2023-04-18T18:50:46.079Z,14.66
2023-04-18T18:53:16.854Z,14.64
2023-04-18T18:55:45.606Z,14.64
2023-04-18T18:58:20.143Z,14.62
2023-04-18T19:00:51.141Z,14.61
2023-04-18T19:03:21.325Z,14.60
2023-04-18T19:05:49.802Z,14.59
2023-04-18T19:08:18.109Z,14.54
2023-04-18T19:10:46.565Z,14.56
2023-04-18T19:13:14.859Z,14.56
2023-04-18T19:15:43.284Z,14.54
2023-04-18T19:18:15.710Z,14.52
2023-04-18T19:20:44.093Z,14.50
2023-04-18T19:23:12.422Z,14.44
2023-04-18T19:25:44.948Z,14.41
2023-04-18T19:28:25.843Z,14.41
2023-04-18T19:31:02.696Z,14.38
2023-04-18T19:33:32.412Z,14.36
2023-04-18T19:36:00.733Z,14.35
2023-04-18T19:38:29.105Z,14.32
2023-04-18T19:40:57.440Z,14.30
2023-04-18T19:43:32.817Z,14.29
2023-04-18T19:46:04.079Z,14.28
2023-04-18T19:48:33.763Z,14.26
2023-04-18T19:51:05.401Z,14.24
2023-04-18T19:53:35.837Z,14.22
2023-04-18T19:56:04.238Z,14.20
2023-04-18T19:58:36.621Z,14.17
2023-04-18T20:01:06.124Z,14.14
2023-04-18T20:03:42.012Z,14.13
2023-04-18T20:06:13.465Z,14.11
2023-04-18T20:08:42.724Z,14.11
2023-04-18T20:11:13.772Z,14.07
2023-04-18T20:13:45.042Z,14.02
2023-04-18T20:16:13.351Z,14.00
2023-04-18T20:18:44.137Z,13.99
2023-04-18T20:21:12.457Z,13.96
2023-04-18T20:23:46.431Z,13.93
2023-04-18T20:26:14.738Z,13.89
2023-04-18T20:28:45.776Z,13.87
2023-04-18T20:31:14.255Z,13.85
2023-04-18T20:33:52.180Z,13.81
2023-04-18T20:36:21.028Z,13.79
2023-04-18T20:38:50.391Z,13.79
2023-04-18T20:41:23.426Z,13.77
2023-04-18T20:43:57.455Z,13.77
2023-04-18T20:46:25.926Z,13.77
2023-04-18T20:48:55.624Z,13.74
2023-04-18T20:51:23.860Z,13.76
2023-04-18T20:53:57.925Z,13.74
2023-04-18T20:56:28.353Z,13.74
2023-04-18T20:58:56.690Z,13.76
2023-04-18T21:01:25.231Z,13.76
2023-04-18T21:03:55.154Z,13.75
2023-04-18T21:06:23.621Z,13.77
2023-04-18T21:08:54.516Z,13.76
2023-04-18T21:11:23.569Z,13.74
2023-04-18T21:13:51.874Z,13.73
2023-04-18T21:16:20.201Z,13.72
2023-04-18T21:18:48.539Z,13.70
2023-04-18T21:21:18.260Z,13.71
2023-04-18T21:23:46.619Z,13.73
2023-04-18T21:26:15.291Z,13.73
2023-04-18T21:29:01.294Z,13.70
2023-04-18T21:31:32.820Z,13.69
2023-04-18T21:34:06.745Z,13.68
2023-04-18T21:36:36.536Z,13.67
2023-04-18T21:39:05.102Z,13.64
2023-04-18T21:41:33.375Z,13.67
2023-04-18T21:44:01.663Z,13.67
2023-04-18T21:46:29.967Z,13.67
2023-04-18T21:48:58.224Z,13.66
2023-04-18T21:51:27.251Z,13.66
2023-04-18T21:53:57.240Z,13.64
2023-04-18T21:56:25.923Z,13.65
2023-04-18T21:58:54.213Z,13.64
2023-04-18T22:01:22.543Z,13.62
2023-04-18T22:03:53.782Z,13.61
2023-04-18T22:06:23.127Z,13.60
2023-04-18T22:08:51.671Z,13.61
2023-04-18T22:11:23.381Z,13.60
2023-04-18T22:13:58.022Z,13.56
2023-04-18T22:16:26.351Z,13.58
2023-04-18T22:18:55.550Z,13.58
2023-04-18T22:21:23.829Z,13.57
2023-04-18T22:23:52.145Z,13.59
2023-04-18T22:26:21.819Z,13.57
2023-04-18T22:28:50.224Z,13.58
2023-04-18T22:31:18.520Z,13.55
2023-04-18T22:33:47.572Z,13.55
2023-04-18T22:36:15.942Z,13.55
2023-04-18T22:38:44.274Z,13.54
2023-04-18T22:41:13.038Z,13.53
2023-04-18T22:43:42.677Z,13.53
2023-04-18T22:46:11.039Z,13.53
2023-04-18T22:48:39.329Z,13.52
2023-04-18T22:51:07.790Z,13.53
2023-04-18T22:53:39.044Z,13.52
2023-04-18T22:56:08.254Z,13.51
2023-04-18T22:58:39.383Z,13.52
2023-04-18T23:01:09.170Z,13.50
2023-04-18T23:03:40.396Z,13.51
2023-04-18T23:06:09.290Z,13.51
2023-04-18T23:08:39.920Z,13.52
2023-04-18T23:11:08.213Z,13.52
2023-04-18T23:13:36.576Z,13.52
2023-04-18T23:16:05.163Z,13.51
2023-04-18T23:18:34.897Z,13.50
2023-04-18T23:21:06.017Z,13.49
2023-04-18T23:23:34.435Z,13.49
2023-04-18T23:26:02.992Z,13.48
2023-04-18T23:28:31.288Z,13.48
2023-04-18T23:31:04.919Z,13.48
2023-04-18T23:33:34.777Z,13.45
2023-04-18T23:36:03.254Z,13.45
2023-04-18T23:38:32.393Z,13.43
2023-04-18T23:41:00.648Z,13.44
2023-04-18T23:43:32.020Z,13.41
2023-04-18T23:46:00.274Z,13.42
2023-04-18T23:48:28.738Z,13.41
2023-04-18T23:50:58.381Z,13.41
2023-04-18T23:53:26.632Z,13.40
2023-04-18T23:55:55.109Z,13.40
2023-04-18T23:58:23.390Z,13.38
